TWA701 KJAX-TJSJ
Flight info
| Callsign | TWA701 |
|---|---|
| Flight time | N/A |
| Altitude | 37000 |
| Route | EXBOX2 EXBOX DCT PRMUS DCT DEBRL DCT ATTIK Y185 RENAH Y355 PLING RTE7 SAALR |
| Aircraft | A20N/M-SDE2E3FGHIJ1RWXY/LB1 |
Departure
| Time | N/A |
|---|---|
| Airport | Jacksonville International Airport (KJAX) |
Arrival
| Time | 2026-04-30 01:43 |
|---|---|
| Airport | Luis Munoz Marin International Airport (TJSJ) |
| Time | Latitude | Longitude | Altitude | Speed | Heading |
|---|---|---|---|---|---|
| 2026-04-30 00:04 | 25.63119 | -75.26111 | 37050 ft | 485 kts | 124° |
| 2026-04-30 00:05 | 25.61223 | -75.23013 | 37050 ft | 485 kts | 124° |
| 2026-04-30 00:05 | 25.57434 | -75.16827 | 37050 ft | 485 kts | 124° |
| 2026-04-30 00:06 | 25.54282 | -75.11689 | 37050 ft | 484 kts | 124° |
| 2026-04-30 00:06 | 25.50497 | -75.05524 | 37048 ft | 484 kts | 124° |
| 2026-04-30 00:07 | 25.46709 | -74.99365 | 37048 ft | 484 kts | 124° |
| 2026-04-30 00:07 | 25.42924 | -74.93217 | 37045 ft | 483 kts | 124° |
| 2026-04-30 00:08 | 25.39131 | -74.87064 | 37041 ft | 483 kts | 124° |
| 2026-04-30 00:08 | 25.35342 | -74.80927 | 37041 ft | 483 kts | 124° |
| 2026-04-30 00:09 | 25.31551 | -74.74794 | 37039 ft | 482 kts | 124° |
| 2026-04-30 00:09 | 25.27785 | -74.68711 | 37044 ft | 482 kts | 124° |
| 2026-04-30 00:10 | 25.23995 | -74.62594 | 37043 ft | 482 kts | 124° |
| 2026-04-30 00:10 | 25.20202 | -74.56484 | 37046 ft | 482 kts | 124° |
| 2026-04-30 00:11 | 25.16409 | -74.50378 | 37046 ft | 482 kts | 125° |
| 2026-04-30 00:11 | 25.12631 | -74.44306 | 37042 ft | 482 kts | 125° |
| 2026-04-30 00:12 | 25.08829 | -74.38202 | 37043 ft | 482 kts | 125° |
| 2026-04-30 00:12 | 25.05045 | -74.32135 | 37044 ft | 482 kts | 125° |
| 2026-04-30 00:13 | 25.01239 | -74.26041 | 37041 ft | 481 kts | 125° |
| 2026-04-30 00:13 | 24.97437 | -74.19960 | 37042 ft | 481 kts | 125° |
| 2026-04-30 00:14 | 24.93630 | -74.13879 | 37043 ft | 481 kts | 126° |
| 2026-04-30 00:14 | 24.89849 | -74.07847 | 37040 ft | 481 kts | 126° |
| 2026-04-30 00:15 | 24.86041 | -74.01780 | 37036 ft | 481 kts | 126° |
| 2026-04-30 00:15 | 24.82233 | -73.95722 | 37036 ft | 481 kts | 126° |
| 2026-04-30 00:16 | 24.78421 | -73.89664 | 37034 ft | 481 kts | 126° |
| 2026-04-30 00:16 | 24.74607 | -73.83611 | 37033 ft | 481 kts | 126° |
| 2026-04-30 00:17 | 24.70783 | -73.77550 | 37035 ft | 482 kts | 126° |
| 2026-04-30 00:17 | 24.66960 | -73.71496 | 37035 ft | 482 kts | 127° |
| 2026-04-30 00:18 | 24.63138 | -73.65451 | 37030 ft | 482 kts | 127° |
| 2026-04-30 00:18 | 24.59332 | -73.59434 | 37031 ft | 482 kts | 127° |
| 2026-04-30 00:19 | 24.55523 | -73.53367 | 37032 ft | 483 kts | 124° |
| 2026-04-30 00:19 | 24.52107 | -73.46999 | 37033 ft | 484 kts | 121° |
| 2026-04-30 00:20 | 24.48738 | -73.40592 | 37031 ft | 484 kts | 122° |
| 2026-04-30 00:20 | 24.45314 | -73.34220 | 37034 ft | 484 kts | 123° |
| 2026-04-30 00:21 | 24.41868 | -73.27858 | 37031 ft | 485 kts | 123° |
| 2026-04-30 00:21 | 24.38410 | -73.21485 | 37030 ft | 485 kts | 123° |
| 2026-04-30 00:22 | 24.34978 | -73.15165 | 37030 ft | 485 kts | 123° |
| 2026-04-30 00:22 | 24.31516 | -73.08799 | 37034 ft | 486 kts | 123° |
| 2026-04-30 00:23 | 24.28051 | -73.02435 | 37030 ft | 486 kts | 123° |
| 2026-04-30 00:23 | 24.24582 | -72.96073 | 37030 ft | 486 kts | 123° |
| 2026-04-30 00:24 | 24.21109 | -72.89713 | 37033 ft | 487 kts | 123° |
| 2026-04-30 00:24 | 24.17626 | -72.83342 | 37031 ft | 487 kts | 123° |
| 2026-04-30 00:25 | 24.14160 | -72.77010 | 37027 ft | 487 kts | 123° |
| 2026-04-30 00:25 | 24.10672 | -72.70644 | 37033 ft | 487 kts | 123° |
| 2026-04-30 00:26 | 24.07181 | -72.64284 | 37032 ft | 488 kts | 124° |
| 2026-04-30 00:26 | 24.03683 | -72.57918 | 37032 ft | 488 kts | 124° |
| 2026-04-30 00:27 | 24.00183 | -72.51557 | 37035 ft | 488 kts | 124° |
| 2026-04-30 00:27 | 23.96678 | -72.45195 | 37033 ft | 488 kts | 124° |
| 2026-04-30 00:28 | 23.93169 | -72.38833 | 37039 ft | 488 kts | 124° |
| 2026-04-30 00:28 | 23.89656 | -72.32473 | 37032 ft | 488 kts | 124° |
| 2026-04-30 00:29 | 23.86164 | -72.26160 | 37030 ft | 489 kts | 124° |
| 2026-04-30 00:29 | 23.82643 | -72.19803 | 37029 ft | 489 kts | 124° |
| 2026-04-30 00:30 | 23.79114 | -72.13439 | 37036 ft | 489 kts | 125° |
| 2026-04-30 00:30 | 23.75587 | -72.07086 | 37030 ft | 489 kts | 125° |
| 2026-04-30 00:31 | 23.72052 | -72.00728 | 37033 ft | 490 kts | 125° |
| 2026-04-30 00:31 | 23.68534 | -71.94408 | 37030 ft | 490 kts | 126° |
| 2026-04-30 00:32 | 23.64986 | -71.88043 | 37028 ft | 491 kts | 126° |
| 2026-04-30 00:32 | 23.61428 | -71.81677 | 37019 ft | 491 kts | 127° |
| 2026-04-30 00:33 | 23.57430 | -71.75694 | 37028 ft | 487 kts | 132° |
| 2026-04-30 00:33 | 23.53343 | -71.69799 | 37026 ft | 488 kts | 132° |
| 2026-04-30 00:34 | 23.49277 | -71.63929 | 37025 ft | 488 kts | 132° |
| 2026-04-30 00:34 | 23.45175 | -71.58017 | 37032 ft | 489 kts | 133° |
| 2026-04-30 00:35 | 23.41061 | -71.52095 | 37036 ft | 490 kts | 133° |
| 2026-04-30 00:35 | 23.36946 | -71.46179 | 37038 ft | 490 kts | 133° |
| 2026-04-30 00:36 | 23.32823 | -71.40258 | 37041 ft | 490 kts | 133° |
| 2026-04-30 00:36 | 23.28731 | -71.34388 | 37041 ft | 491 kts | 133° |
| 2026-04-30 00:37 | 23.24602 | -71.28472 | 37042 ft | 491 kts | 133° |
| 2026-04-30 00:37 | 23.20465 | -71.22553 | 37043 ft | 491 kts | 133° |
| 2026-04-30 00:38 | 23.16328 | -71.16639 | 37039 ft | 490 kts | 133° |
| 2026-04-30 00:38 | 23.12194 | -71.10736 | 37043 ft | 490 kts | 133° |
| 2026-04-30 00:39 | 23.08091 | -71.04885 | 37043 ft | 490 kts | 133° |
| 2026-04-30 00:39 | 23.03958 | -70.98997 | 37040 ft | 490 kts | 134° |
| 2026-04-30 00:40 | 22.99828 | -70.93121 | 37036 ft | 489 kts | 134° |
| 2026-04-30 00:40 | 22.95694 | -70.87245 | 37033 ft | 489 kts | 134° |
| 2026-04-30 00:41 | 22.91552 | -70.81365 | 37034 ft | 489 kts | 134° |
| 2026-04-30 00:41 | 22.87411 | -70.75507 | 37028 ft | 489 kts | 134° |
| 2026-04-30 00:42 | 22.83298 | -70.69698 | 37026 ft | 489 kts | 134° |
| 2026-04-30 00:42 | 22.79153 | -70.63847 | 37026 ft | 489 kts | 134° |
| 2026-04-30 00:43 | 22.75003 | -70.57997 | 37025 ft | 489 kts | 134° |
| 2026-04-30 00:43 | 22.70855 | -70.52154 | 37027 ft | 489 kts | 134° |
| 2026-04-30 00:44 | 22.66720 | -70.46338 | 37024 ft | 490 kts | 134° |
| 2026-04-30 00:44 | 22.62561 | -70.40493 | 37027 ft | 490 kts | 134° |
| 2026-04-30 00:45 | 22.58400 | -70.34653 | 37030 ft | 491 kts | 134° |
| 2026-04-30 00:45 | 22.54228 | -70.28802 | 37027 ft | 491 kts | 134° |
| 2026-04-30 00:46 | 22.50049 | -70.22950 | 37029 ft | 492 kts | 135° |
| 2026-04-30 00:46 | 22.45866 | -70.17097 | 37031 ft | 492 kts | 135° |
| 2026-04-30 00:47 | 22.41668 | -70.11231 | 37032 ft | 493 kts | 135° |
| 2026-04-30 00:47 | 22.37495 | -70.05405 | 37035 ft | 493 kts | 135° |
| 2026-04-30 00:48 | 22.33291 | -69.99544 | 37032 ft | 494 kts | 135° |
| 2026-04-30 00:48 | 22.29082 | -69.93681 | 37042 ft | 494 kts | 135° |
| 2026-04-30 00:49 | 22.24866 | -69.87816 | 37044 ft | 494 kts | 135° |
| 2026-04-30 00:49 | 22.20648 | -69.81957 | 37036 ft | 495 kts | 135° |
| 2026-04-30 00:50 | 22.16410 | -69.76075 | 37046 ft | 495 kts | 135° |
| 2026-04-30 00:50 | 22.12181 | -69.70209 | 37041 ft | 495 kts | 135° |
| 2026-04-30 00:51 | 22.07954 | -69.64353 | 37040 ft | 495 kts | 135° |
| 2026-04-30 00:51 | 22.03715 | -69.58488 | 37034 ft | 495 kts | 135° |
| 2026-04-30 00:52 | 21.99479 | -69.52634 | 37031 ft | 495 kts | 136° |
| 2026-04-30 00:52 | 21.95268 | -69.46821 | 37030 ft | 495 kts | 136° |
| 2026-04-30 00:53 | 21.91021 | -69.40963 | 37029 ft | 495 kts | 136° |
| 2026-04-30 00:53 | 21.87493 | -69.36104 | 37029 ft | 495 kts | 136° |
| 2026-04-30 00:54 | 21.83242 | -69.30253 | 37030 ft | 495 kts | 136° |
| 2026-04-30 00:54 | 21.79000 | -69.24422 | 37029 ft | 495 kts | 136° |
| 2026-04-30 00:55 | 21.74751 | -69.18586 | 37027 ft | 495 kts | 136° |
| 2026-04-30 00:55 | 21.68394 | -69.09868 | 37023 ft | 495 kts | 136° |
| 2026-04-30 00:56 | 21.64134 | -69.04033 | 37023 ft | 496 kts | 136° |
| 2026-04-30 00:56 | 21.59155 | -68.97222 | 37023 ft | 496 kts | 136° |
| 2026-04-30 00:57 | 21.55606 | -68.92371 | 37023 ft | 496 kts | 136° |
| 2026-04-30 00:57 | 21.51336 | -68.86541 | 37020 ft | 496 kts | 136° |
| 2026-04-30 00:58 | 21.47059 | -68.80709 | 37036 ft | 497 kts | 136° |
| 2026-04-30 00:58 | 21.42779 | -68.74877 | 37029 ft | 497 kts | 136° |
| 2026-04-30 00:59 | 21.38499 | -68.69053 | 37023 ft | 497 kts | 136° |
| 2026-04-30 00:59 | 21.34209 | -68.63219 | 37025 ft | 497 kts | 136° |
| 2026-04-30 01:00 | 21.29920 | -68.57395 | 37026 ft | 498 kts | 136° |
| 2026-04-30 01:00 | 21.25653 | -68.51605 | 37028 ft | 498 kts | 136° |
| 2026-04-30 01:01 | 21.21348 | -68.45771 | 37026 ft | 497 kts | 136° |
| 2026-04-30 01:01 | 21.17050 | -68.39953 | 37030 ft | 497 kts | 136° |
| 2026-04-30 01:02 | 21.12751 | -68.34140 | 37021 ft | 497 kts | 136° |
| 2026-04-30 01:02 | 21.08485 | -68.28378 | 37023 ft | 497 kts | 136° |
| 2026-04-30 01:03 | 21.04185 | -68.22575 | 37027 ft | 497 kts | 136° |
| 2026-04-30 01:03 | 20.99888 | -68.16782 | 37024 ft | 497 kts | 136° |
| 2026-04-30 01:04 | 20.95584 | -68.10986 | 37020 ft | 496 kts | 136° |
| 2026-04-30 01:04 | 20.91290 | -68.05209 | 37021 ft | 496 kts | 136° |
| 2026-04-30 01:05 | 20.87012 | -67.99456 | 37022 ft | 496 kts | 136° |
| 2026-04-30 01:05 | 20.82744 | -67.93647 | 37019 ft | 497 kts | 135° |
| 2026-04-30 01:06 | 20.78513 | -67.87802 | 37021 ft | 497 kts | 135° |
| 2026-04-30 01:06 | 20.74273 | -67.81966 | 37020 ft | 496 kts | 135° |
| 2026-04-30 01:07 | 20.70022 | -67.76130 | 37021 ft | 496 kts | 135° |
| 2026-04-30 01:07 | 20.65777 | -67.70311 | 37020 ft | 496 kts | 135° |
| 2026-04-30 01:08 | 20.61536 | -67.64502 | 37024 ft | 496 kts | 135° |
| 2026-04-30 01:08 | 20.57317 | -67.58730 | 37022 ft | 496 kts | 135° |
| 2026-04-30 01:09 | 20.53074 | -67.52930 | 37020 ft | 495 kts | 135° |
| 2026-04-30 01:09 | 20.48832 | -67.47139 | 37028 ft | 495 kts | 135° |
| 2026-04-30 01:10 | 20.44587 | -67.41348 | 37028 ft | 495 kts | 135° |
| 2026-04-30 01:10 | 20.40349 | -67.35572 | 37025 ft | 494 kts | 134° |
| 2026-04-30 01:11 | 20.38234 | -67.32690 | 36868 ft | 490 kts | 134° |
| 2026-04-30 01:11 | 20.36145 | -67.29843 | 36410 ft | 487 kts | 134° |
| 2026-04-30 01:11 | 20.34056 | -67.27002 | 35823 ft | 487 kts | 134° |
| 2026-04-30 01:11 | 20.31993 | -67.24198 | 35214 ft | 486 kts | 134° |
| 2026-04-30 01:12 | 20.29909 | -67.21368 | 34585 ft | 485 kts | 134° |
| 2026-04-30 01:12 | 20.27827 | -67.18541 | 33969 ft | 484 kts | 134° |
| 2026-04-30 01:12 | 20.25750 | -67.15723 | 33258 ft | 483 kts | 134° |
| 2026-04-30 01:12 | 20.23673 | -67.12905 | 32542 ft | 483 kts | 133° |
| 2026-04-30 01:13 | 20.21597 | -67.10092 | 31812 ft | 483 kts | 133° |
| 2026-04-30 01:13 | 20.19520 | -67.07278 | 31077 ft | 483 kts | 133° |
| 2026-04-30 01:13 | 20.17447 | -67.04471 | 30372 ft | 482 kts | 133° |
| 2026-04-30 01:13 | 20.15383 | -67.01675 | 29750 ft | 478 kts | 132° |
| 2026-04-30 01:14 | 20.13337 | -66.98902 | 29137 ft | 473 kts | 132° |
| 2026-04-30 01:14 | 20.11311 | -66.96159 | 28521 ft | 469 kts | 132° |
| 2026-04-30 01:14 | 20.09306 | -66.93444 | 27922 ft | 464 kts | 133° |
| 2026-04-30 01:14 | 20.07317 | -66.90755 | 27331 ft | 460 kts | 132° |
| 2026-04-30 01:15 | 20.05347 | -66.88092 | 26748 ft | 456 kts | 133° |
| 2026-04-30 01:15 | 20.03394 | -66.85454 | 26187 ft | 452 kts | 133° |
| 2026-04-30 01:15 | 20.01455 | -66.82839 | 25626 ft | 448 kts | 134° |
| 2026-04-30 01:15 | 19.99372 | -66.80410 | 25087 ft | 440 kts | 141° |
| 2026-04-30 01:16 | 19.97108 | -66.78343 | 24640 ft | 429 kts | 148° |
| 2026-04-30 01:16 | 19.94700 | -66.76581 | 24491 ft | 412 kts | 152° |
| 2026-04-30 01:16 | 19.92355 | -66.74912 | 24373 ft | 398 kts | 151° |
| 2026-04-30 01:16 | 19.90094 | -66.73290 | 24258 ft | 385 kts | 152° |
| 2026-04-30 01:17 | 19.87910 | -66.71724 | 24134 ft | 372 kts | 152° |
| 2026-04-30 01:17 | 19.85777 | -66.70199 | 23797 ft | 367 kts | 152° |
| 2026-04-30 01:17 | 19.83665 | -66.68694 | 23359 ft | 365 kts | 152° |
| 2026-04-30 01:17 | 19.81577 | -66.67207 | 23041 ft | 354 kts | 152° |
| 2026-04-30 01:18 | 19.79576 | -66.65776 | 22865 ft | 339 kts | 152° |
| 2026-04-30 01:18 | 19.77639 | -66.64393 | 22509 ft | 332 kts | 152° |
| 2026-04-30 01:18 | 19.75761 | -66.63054 | 22310 ft | 319 kts | 152° |
| 2026-04-30 01:18 | 19.73926 | -66.61749 | 21895 ft | 316 kts | 152° |
| 2026-04-30 01:19 | 19.72105 | -66.60458 | 21406 ft | 314 kts | 152° |
| 2026-04-30 01:19 | 19.70292 | -66.59171 | 20955 ft | 313 kts | 152° |
| 2026-04-30 01:19 | 19.68462 | -66.57874 | 20625 ft | 324 kts | 151° |
| 2026-04-30 01:19 | 19.66583 | -66.56543 | 20605 ft | 329 kts | 151° |
| 2026-04-30 01:20 | 19.64713 | -66.55210 | 20531 ft | 319 kts | 151° |
| 2026-04-30 01:20 | 19.62892 | -66.53909 | 20319 ft | 319 kts | 151° |
| 2026-04-30 01:20 | 19.61018 | -66.52581 | 20291 ft | 326 kts | 151° |
| 2026-04-30 01:20 | 19.59116 | -66.51298 | 20249 ft | 319 kts | 156° |
| 2026-04-30 01:21 | 19.57127 | -66.50342 | 20159 ft | 306 kts | 165° |
| 2026-04-30 01:21 | 19.55130 | -66.49621 | 19832 ft | 301 kts | 166° |
| 2026-04-30 01:21 | 19.53145 | -66.48903 | 19381 ft | 301 kts | 165° |
| 2026-04-30 01:21 | 19.51186 | -66.48190 | 18953 ft | 301 kts | 165° |
| 2026-04-30 01:22 | 19.49210 | -66.47468 | 18523 ft | 300 kts | 165° |
| 2026-04-30 01:22 | 19.47242 | -66.46747 | 18070 ft | 299 kts | 165° |
| 2026-04-30 01:22 | 19.45281 | -66.46029 | 17625 ft | 296 kts | 164° |
| 2026-04-30 01:22 | 19.43342 | -66.45319 | 17194 ft | 294 kts | 164° |
| 2026-04-30 01:23 | 19.41416 | -66.44615 | 16747 ft | 292 kts | 164° |
| 2026-04-30 01:23 | 19.39494 | -66.43912 | 16325 ft | 290 kts | 164° |
| 2026-04-30 01:23 | 19.37588 | -66.43216 | 15897 ft | 288 kts | 163° |
| 2026-04-30 01:23 | 19.35695 | -66.42524 | 15490 ft | 286 kts | 163° |
| 2026-04-30 01:24 | 19.33844 | -66.41848 | 15092 ft | 284 kts | 163° |
| 2026-04-30 01:24 | 19.31980 | -66.41166 | 14693 ft | 282 kts | 163° |
| 2026-04-30 01:24 | 19.30130 | -66.40491 | 14303 ft | 281 kts | 163° |
| 2026-04-30 01:24 | 19.28288 | -66.39818 | 13911 ft | 279 kts | 163° |
| 2026-04-30 01:25 | 19.26453 | -66.39148 | 13493 ft | 277 kts | 163° |
| 2026-04-30 01:25 | 19.24630 | -66.38483 | 13068 ft | 275 kts | 163° |
| 2026-04-30 01:25 | 19.22827 | -66.37825 | 12651 ft | 273 kts | 163° |
| 2026-04-30 01:25 | 19.21033 | -66.37171 | 12232 ft | 272 kts | 163° |
| 2026-04-30 01:26 | 19.19251 | -66.36521 | 11825 ft | 270 kts | 162° |
| 2026-04-30 01:26 | 19.17476 | -66.35873 | 11432 ft | 268 kts | 162° |
| 2026-04-30 01:26 | 19.15719 | -66.35232 | 11103 ft | 269 kts | 162° |
| 2026-04-30 01:26 | 19.13875 | -66.34697 | 11143 ft | 277 kts | 174° |
| 2026-04-30 01:27 | 19.11951 | -66.34498 | 11360 ft | 279 kts | 176° |
| 2026-04-30 01:27 | 19.10030 | -66.34321 | 11341 ft | 279 kts | 176° |
| 2026-04-30 01:27 | 19.08112 | -66.34142 | 11169 ft | 276 kts | 176° |
| 2026-04-30 01:27 | 19.06200 | -66.33966 | 11020 ft | 274 kts | 176° |
| 2026-04-30 01:28 | 19.04287 | -66.33795 | 10993 ft | 277 kts | 176° |
| 2026-04-30 01:28 | 19.02364 | -66.33621 | 10994 ft | 277 kts | 176° |
| 2026-04-30 01:28 | 19.00443 | -66.33448 | 10996 ft | 277 kts | 176° |
| 2026-04-30 01:28 | 18.98523 | -66.33279 | 11001 ft | 277 kts | 176° |
| 2026-04-30 01:29 | 18.96606 | -66.33111 | 10999 ft | 276 kts | 176° |
| 2026-04-30 01:29 | 18.94689 | -66.32942 | 11002 ft | 277 kts | 176° |
| 2026-04-30 01:29 | 18.92776 | -66.32774 | 10932 ft | 275 kts | 176° |
| 2026-04-30 01:29 | 18.90892 | -66.32610 | 10630 ft | 274 kts | 176° |
| 2026-04-30 01:30 | 18.88991 | -66.32447 | 10236 ft | 273 kts | 176° |
| 2026-04-30 01:30 | 18.87096 | -66.32292 | 9815 ft | 272 kts | 176° |
| 2026-04-30 01:30 | 18.85213 | -66.32141 | 9369 ft | 271 kts | 176° |
| 2026-04-30 01:30 | 18.83340 | -66.31996 | 8941 ft | 268 kts | 176° |
| 2026-04-30 01:31 | 18.81483 | -66.31860 | 8518 ft | 267 kts | 176° |
| 2026-04-30 01:31 | 18.79634 | -66.31733 | 8106 ft | 265 kts | 176° |
| 2026-04-30 01:31 | 18.77798 | -66.31613 | 7694 ft | 263 kts | 176° |
| 2026-04-30 01:31 | 18.75976 | -66.31502 | 7275 ft | 262 kts | 176° |
| 2026-04-30 01:32 | 18.74165 | -66.31400 | 6895 ft | 260 kts | 176° |
| 2026-04-30 01:32 | 18.72363 | -66.31306 | 6505 ft | 258 kts | 176° |
| 2026-04-30 01:32 | 18.70575 | -66.31220 | 6103 ft | 257 kts | 176° |
| 2026-04-30 01:32 | 18.68795 | -66.31138 | 5719 ft | 255 kts | 176° |
| 2026-04-30 01:33 | 18.67053 | -66.31058 | 5408 ft | 249 kts | 176° |
| 2026-04-30 01:33 | 18.65407 | -66.30985 | 5276 ft | 226 kts | 176° |
| 2026-04-30 01:33 | 18.63874 | -66.30920 | 4906 ft | 218 kts | 176° |
| 2026-04-30 01:33 | 18.62369 | -66.30859 | 4517 ft | 210 kts | 176° |
| 2026-04-30 01:34 | 18.60997 | -66.30814 | 4200 ft | 189 kts | 176° |
| 2026-04-30 01:34 | 18.59764 | -66.30444 | 3625 ft | 185 kts | 150° |
| 2026-04-30 01:34 | 18.58673 | -66.29756 | 3154 ft | 179 kts | 146° |
| 2026-04-30 01:34 | 18.57617 | -66.29034 | 3017 ft | 183 kts | 145° |
| 2026-04-30 01:35 | 18.56552 | -66.28313 | 2992 ft | 184 kts | 146° |
| 2026-04-30 01:35 | 18.55465 | -66.27599 | 3001 ft | 186 kts | 147° |
| 2026-04-30 01:35 | 18.54362 | -66.26889 | 2994 ft | 184 kts | 147° |
| 2026-04-30 01:35 | 18.53268 | -66.26195 | 2961 ft | 181 kts | 147° |
| 2026-04-30 01:36 | 18.52200 | -66.25519 | 2631 ft | 178 kts | 148° |
| 2026-04-30 01:36 | 18.51136 | -66.24847 | 2165 ft | 179 kts | 147° |
| 2026-04-30 01:36 | 18.50061 | -66.24168 | 2018 ft | 181 kts | 148° |
| 2026-04-30 01:36 | 18.48980 | -66.23484 | 1998 ft | 182 kts | 148° |
| 2026-04-30 01:37 | 18.47894 | -66.22797 | 1993 ft | 182 kts | 148° |
| 2026-04-30 01:37 | 18.46809 | -66.22111 | 1993 ft | 177 kts | 148° |
| 2026-04-30 01:37 | 18.45834 | -66.21498 | 1986 ft | 150 kts | 148° |
| 2026-04-30 01:37 | 18.44991 | -66.20968 | 1997 ft | 137 kts | 147° |
| 2026-04-30 01:38 | 18.44176 | -66.20436 | 2001 ft | 137 kts | 142° |
| 2026-04-30 01:38 | 18.43594 | -66.19668 | 1999 ft | 135 kts | 112° |
| 2026-04-30 01:38 | 18.43426 | -66.19041 | 1995 ft | 134 kts | 98° |
| 2026-04-30 01:38 | 18.43364 | -66.18061 | 2000 ft | 135 kts | 90° |
| 2026-04-30 01:39 | 18.43378 | -66.16754 | 1999 ft | 135 kts | 90° |
| 2026-04-30 01:39 | 18.43376 | -66.15767 | 2000 ft | 135 kts | 90° |
| 2026-04-30 01:39 | 18.43375 | -66.15100 | 1995 ft | 134 kts | 90° |
| 2026-04-30 01:39 | 18.43374 | -66.14117 | 1996 ft | 135 kts | 90° |
| 2026-04-30 01:40 | 18.43373 | -66.13134 | 1994 ft | 134 kts | 90° |
| 2026-04-30 01:40 | 18.43371 | -66.12139 | 1958 ft | 137 kts | 90° |
| 2026-04-30 01:40 | 18.43370 | -66.11157 | 1787 ft | 134 kts | 90° |
| 2026-04-30 01:40 | 18.43368 | -66.10174 | 1617 ft | 134 kts | 90° |
| 2026-04-30 01:41 | 18.43367 | -66.09191 | 1448 ft | 134 kts | 90° |
| 2026-04-30 01:41 | 18.43365 | -66.08208 | 1271 ft | 134 kts | 90° |
| 2026-04-30 01:41 | 18.43363 | -66.07232 | 1099 ft | 134 kts | 90° |
| 2026-04-30 01:41 | 18.43362 | -66.06249 | 937 ft | 132 kts | 90° |
| 2026-04-30 01:42 | 18.43360 | -66.05283 | 771 ft | 133 kts | 90° |
| 2026-04-30 01:42 | 18.43359 | -66.04308 | 593 ft | 134 kts | 90° |
| 2026-04-30 01:42 | 18.43357 | -66.03325 | 410 ft | 134 kts | 90° |
| 2026-04-30 01:42 | 18.43355 | -66.02335 | 237 ft | 135 kts | 90° |
| 2026-04-30 01:43 | 18.43354 | -66.01357 | 51 ft | 133 kts | 90° |
| 2026-04-30 01:43 | 18.43353 | -66.00526 | 17 ft | 69 kts | 90° |
| 2026-04-30 01:43 | 18.43400 | -66.00246 | 18 ft | 6 kts | 48° |
| 2026-04-30 01:43 | 18.43439 | -66.00227 | 18 ft | 7 kts | 2° |
| 2026-04-30 01:44 | 18.43492 | -66.00244 | 20 ft | 9 kts | 333° |
| 2026-04-30 01:44 | 18.43555 | -66.00251 | 18 ft | 10 kts | 9° |
| 2026-04-30 01:44 | 18.43621 | -66.00244 | 18 ft | 0 kts | 5° |